Time;durP1;ratioP1;P1;durP2;ratioP2;P2;SDS_P1;SDS_P2;PMS_P1;PMS_P2;Temp;Humidity;BMP_temperature;BMP_pressure;BME280_temperature;BME280_humidity;BME280_pressure;Samples;Min_cycle;Max_cycle;Signal;HPM_P1;HPM_P2
2021/11/30 00:00:51;;;;;;;;;;;18.80;42.10;;;;;;5155406;27;19946;-59
2021/11/30 00:03:16;;;;;;;;;;;18.80;42.10;;;;;;5156302;27;20454;-59
2021/11/30 00:05:43;;;;;;;;;;;18.80;42.10;;;;;;5161907;27;19907;-58
2021/11/30 00:08:10;;;;;;;;;;;18.80;42.00;;;;;;5162186;27;20017;-58
2021/11/30 00:10:46;;;;;;;;;;;18.80;42.00;;;;;;5161895;27;19950;-59
2021/11/30 00:13:12;;;;;;;;;;;18.80;42.00;;;;;;5162229;27;20002;-59
2021/11/30 00:15:38;;;;;;;;;;;18.80;42.10;;;;;;5161933;27;20385;-59
2021/11/30 00:18:03;;;;;;;;;;;18.80;42.10;;;;;;5161842;27;19911;-59
2021/11/30 00:20:29;;;;;;;;;;;18.80;42.10;;;;;;5162236;27;19914;-59
2021/11/30 00:22:54;;;;;;;;;;;18.80;42.10;;;;;;5162056;27;19958;-59
2021/11/30 00:25:20;;;;;;;;;;;18.80;42.10;;;;;;5162097;27;19914;-59
2021/11/30 00:27:45;;;;;;;;;;;18.80;42.00;;;;;;5162067;27;19994;-58
2021/11/30 00:30:10;;;;;;;;;;;18.80;42.00;;;;;;5161785;27;20293;-59
2021/11/30 00:32:36;;;;;;;;;;;18.80;42.00;;;;;;5143106;27;19931;-59
2021/11/30 00:35:02;;;;;;;;;;;18.70;42.00;;;;;;5161953;27;19966;-59
2021/11/30 00:37:27;;;;;;;;;;;18.80;42.00;;;;;;5161926;27;19997;-59
2021/11/30 00:39:53;;;;;;;;;;;18.70;42.00;;;;;;5161835;27;19907;-58
2021/11/30 00:42:21;;;;;;;;;;;18.70;42.00;;;;;;5161523;27;19915;-59
2021/11/30 00:44:49;;;;;;;;;;;18.70;42.00;;;;;;5161594;27;19914;-59
2021/11/30 00:47:19;;;;;;;;;;;18.70;42.00;;;;;;5161526;27;20338;-59
2021/11/30 00:49:46;;;;;;;;;;;18.70;42.00;;;;;;5161565;27;19907;-59
2021/11/30 00:52:12;;;;;;;;;;;18.70;42.00;;;;;;5161810;27;20385;-59
2021/11/30 00:54:37;;;;;;;;;;;18.70;42.00;;;;;;5161499;27;19908;-58
2021/11/30 00:57:03;;;;;;;;;;;18.70;42.00;;;;;;5161394;27;19923;-59
2021/11/30 00:59:29;;;;;;;;;;;18.70;42.00;;;;;;5142925;27;19932;-58
2021/11/30 01:01:55;;;;;;;;;;;18.70;42.00;;;;;;5161389;27;19915;-58
2021/11/30 01:04:20;;;;;;;;;;;18.70;42.00;;;;;;5161638;27;20002;-58
2021/11/30 01:06:46;;;;;;;;;;;18.70;42.00;;;;;;5161671;27;19950;-58
2021/11/30 01:09:12;;;;;;;;;;;18.70;42.10;;;;;;5161598;27;19911;-59
2021/11/30 01:11:37;;;;;;;;;;;18.70;42.00;;;;;;5161433;27;19907;-59
2021/11/30 01:14:04;;;;;;;;;;;18.70;42.00;;;;;;5161589;27;20274;-59
2021/11/30 01:16:29;;;;;;;;;;;18.70;42.00;;;;;;5157692;27;20005;-58
2021/11/30 01:18:54;;;;;;;;;;;18.70;42.00;;;;;;5157976;27;19951;-58
2021/11/30 01:21:20;;;;;;;;;;;18.70;42.00;;;;;;5158138;27;19915;-58
2021/11/30 01:23:45;;;;;;;;;;;18.60;42.00;;;;;;5157981;27;19999;-58
2021/11/30 01:26:11;;;;;;;;;;;18.70;42.00;;;;;;5157924;27;19914;-58
2021/11/30 01:28:36;;;;;;;;;;;18.70;41.90;;;;;;5157829;27;20411;-59
2021/11/30 01:31:02;;;;;;;;;;;18.60;42.00;;;;;;5157785;27;20401;-59
2021/11/30 01:33:29;;;;;;;;;;;18.60;42.00;;;;;;5157907;27;19911;-59
2021/11/30 01:35:55;;;;;;;;;;;18.70;41.90;;;;;;5157969;27;19915;-58
2021/11/30 01:38:21;;;;;;;;;;;18.60;41.90;;;;;;5157660;27;19998;-59
2021/11/30 01:40:48;;;;;;;;;;;18.60;41.90;;;;;;5157959;27;19930;-59
2021/11/30 01:43:19;;;;;;;;;;;18.60;41.80;;;;;;5157507;27;20365;-58
2021/11/30 01:45:56;;;;;;;;;;;18.60;41.90;;;;;;5157498;27;19976;-58
2021/11/30 01:50:54;;;;;;;;;;;18.60;41.80;;;;;;5157732;27;19911;-59
2021/11/30 01:53:20;;;;;;;;;;;18.60;41.80;;;;;;5157679;27;20308;-58
2021/11/30 01:55:45;;;;;;;;;;;18.60;41.80;;;;;;5157354;27;19921;-58
2021/11/30 01:58:12;;;;;;;;;;;18.60;41.80;;;;;;5157052;27;19919;-58
2021/11/30 02:00:38;;;;;;;;;;;18.60;41.90;;;;;;5157511;27;19914;-58
2021/11/30 02:03:07;;;;;;;;;;;18.60;41.90;;;;;;5157503;27;19915;-58
2021/11/30 02:05:37;;;;;;;;;;;18.60;41.90;;;;;;5157143;27;19914;-58
2021/11/30 02:08:03;;;;;;;;;;;18.60;41.90;;;;;;5157387;27;19907;-59
2021/11/30 02:10:29;;;;;;;;;;;18.50;41.90;;;;;;5157070;27;19932;-58
2021/11/30 02:12:55;;;;;;;;;;;18.60;41.90;;;;;;5157048;27;20005;-59
2021/11/30 02:15:23;;;;;;;;;;;18.60;41.90;;;;;;5156876;27;19955;-59
2021/11/30 02:17:50;;;;;;;;;;;18.60;41.90;;;;;;5157228;27;19908;-59
2021/11/30 02:20:16;;;;;;;;;;;18.50;41.80;;;;;;5156811;27;20269;-60
2021/11/30 02:22:47;;;;;;;;;;;18.60;41.80;;;;;;5156990;27;19915;-59
2021/11/30 02:25:13;;;;;;;;;;;18.50;41.80;;;;;;5157067;27;19917;-59
2021/11/30 02:27:38;;;;;;;;;;;18.50;41.80;;;;;;5155765;27;20318;-59
2021/11/30 02:30:04;;;;;;;;;;;18.50;41.80;;;;;;5156954;27;19907;-58
2021/11/30 02:32:29;;;;;;;;;;;18.60;41.80;;;;;;5156588;27;19967;-59
2021/11/30 02:34:55;;;;;;;;;;;18.50;41.80;;;;;;5156847;27;19907;-59
2021/11/30 02:37:26;;;;;;;;;;;18.50;41.90;;;;;;5156557;27;20032;-59
2021/11/30 02:39:52;;;;;;;;;;;18.50;41.90;;;;;;5156509;27;19913;-58
2021/11/30 02:42:17;;;;;;;;;;;18.50;41.90;;;;;;5156580;27;19915;-58
2021/11/30 02:44:43;;;;;;;;;;;18.50;42.00;;;;;;5138038;27;19959;-58
2021/11/30 02:47:09;;;;;;;;;;;18.50;41.90;;;;;;5156612;27;19906;-58
2021/11/30 02:49:37;;;;;;;;;;;18.50;41.90;;;;;;5156353;27;19915;-59
2021/11/30 02:52:06;;;;;;;;;;;18.50;42.00;;;;;;5156295;27;19918;-58
2021/11/30 02:54:33;;;;;;;;;;;18.50;41.90;;;;;;5156375;27;19910;-59
2021/11/30 02:57:00;;;;;;;;;;;18.50;41.90;;;;;;5155985;27;19942;-58
2021/11/30 02:59:27;;;;;;;;;;;18.50;41.90;;;;;;5156151;27;20362;-58
2021/11/30 03:01:54;;;;;;;;;;;18.50;41.90;;;;;;5156018;27;19911;-59
2021/11/30 03:04:19;;;;;;;;;;;18.50;41.80;;;;;;5155984;27;19907;-59
2021/11/30 03:06:45;;;;;;;;;;;18.50;41.90;;;;;;5155871;27;19907;-58
2021/11/30 03:09:10;;;;;;;;;;;18.50;41.90;;;;;;5155885;27;19911;-59
2021/11/30 03:11:36;;;;;;;;;;;18.50;41.90;;;;;;5155899;27;19907;-59
2021/11/30 03:14:02;;;;;;;;;;;18.50;41.90;;;;;;5155726;27;20270;-59
2021/11/30 03:16:27;;;;;;;;;;;18.50;41.80;;;;;;5137268;27;19907;-59
2021/11/30 03:18:53;;;;;;;;;;;18.50;41.90;;;;;;5155759;27;19911;-59
2021/11/30 03:21:18;;;;;;;;;;;18.50;41.90;;;;;;5155597;27;19907;-58
2021/11/30 03:23:44;;;;;;;;;;;18.40;41.80;;;;;;5155621;27;19943;-59
2021/11/30 03:26:10;;;;;;;;;;;18.50;41.80;;;;;;5155819;27;19907;-59
2021/11/30 03:28:36;;;;;;;;;;;18.50;41.80;;;;;;5155749;27;19957;-59
2021/11/30 03:31:07;;;;;;;;;;;18.40;41.80;;;;;;5155579;27;19907;-59
2021/11/30 03:36:17;;;;;;;;;;;18.40;41.80;;;;;;5155515;27;20380;-59
2021/11/30 03:38:43;;;;;;;;;;;18.40;41.80;;;;;;5154959;27;19907;-58
2021/11/30 03:41:08;;;;;;;;;;;18.40;41.90;;;;;;5155351;27;19998;-60
2021/11/30 03:43:34;;;;;;;;;;;18.40;41.80;;;;;;5155572;27;19990;-58
2021/11/30 03:46:00;;;;;;;;;;;18.40;41.80;;;;;;5155534;27;19907;-58
2021/11/30 03:48:25;;;;;;;;;;;18.40;41.80;;;;;;5155248;27;19907;-58
2021/11/30 03:50:51;;;;;;;;;;;18.40;41.90;;;;;;5155197;27;20475;-58
2021/11/30 03:53:16;;;;;;;;;;;18.40;41.90;;;;;;5155207;27;20039;-59
2021/11/30 03:55:42;;;;;;;;;;;18.40;41.80;;;;;;5155305;27;19907;-58
2021/11/30 03:58:07;;;;;;;;;;;18.40;41.80;;;;;;5155061;27;19919;-59
2021/11/30 04:00:33;;;;;;;;;;;18.40;41.90;;;;;;5155153;27;20357;-58
2021/11/30 04:02:59;;;;;;;;;;;18.40;41.90;;;;;;5155131;27;20384;-58
2021/11/30 04:05:24;;;;;;;;;;;18.40;41.90;;;;;;5155083;27;19911;-58
2021/11/30 04:07:50;;;;;;;;;;;18.40;41.90;;;;;;5155255;27;19907;-58
2021/11/30 04:10:15;;;;;;;;;;;18.40;41.90;;;;;;5155335;27;19954;-58
2021/11/30 04:12:40;;;;;;;;;;;18.40;42.00;;;;;;5155021;27;19949;-58
2021/11/30 04:15:06;;;;;;;;;;;18.40;42.00;;;;;;5155028;27;19959;-59
2021/11/30 04:17:32;;;;;;;;;;;18.40;42.00;;;;;;5155274;27;19911;-59
2021/11/30 04:19:58;;;;;;;;;;;18.40;42.10;;;;;;5154943;27;20288;-58
2021/11/30 04:22:23;;;;;;;;;;;18.30;42.00;;;;;;5155061;27;19920;-59
2021/11/30 04:24:49;;;;;;;;;;;18.30;42.00;;;;;;5155094;27;19914;-59
2021/11/30 04:27:14;;;;;;;;;;;18.30;42.00;;;;;;5155138;27;19907;-59
2021/11/30 04:29:42;;;;;;;;;;;18.30;42.00;;;;;;5155107;27;19914;-58
2021/11/30 04:32:08;;;;;;;;;;;18.30;42.00;;;;;;5154770;27;19907;-59
2021/11/30 04:34:34;;;;;;;;;;;18.30;42.10;;;;;;5154783;27;19915;-59
2021/11/30 04:37:00;;;;;;;;;;;18.30;42.00;;;;;;5136238;27;19908;-59
2021/11/30 04:39:25;;;;;;;;;;;18.30;42.00;;;;;;5154945;27;19908;-59
2021/11/30 04:41:51;;;;;;;;;;;18.30;42.00;;;;;;5154663;27;19916;-59
2021/11/30 04:44:17;;;;;;;;;;;18.30;42.10;;;;;;5154836;27;19908;-58
2021/11/30 04:46:51;;;;;;;;;;;18.30;42.00;;;;;;5154700;27;20274;-58
2021/11/30 04:49:35;;;;;;;;;;;18.40;42.00;;;;;;5154699;27;20350;-57
2021/11/30 04:52:01;;;;;;;;;;;18.30;42.00;;;;;;5158183;27;19907;-58
2021/11/30 04:54:27;;;;;;;;;;;18.30;42.10;;;;;;5158810;27;19911;-59
2021/11/30 04:56:53;;;;;;;;;;;18.30;42.00;;;;;;5158475;27;19979;-59
2021/11/30 04:59:19;;;;;;;;;;;18.30;42.10;;;;;;5158501;27;19908;-58
2021/11/30 05:01:45;;;;;;;;;;;18.30;42.10;;;;;;5158559;27;19918;-59
2021/11/30 05:04:12;;;;;;;;;;;18.30;42.20;;;;;;5158383;27;19907;-58
2021/11/30 05:06:37;;;;;;;;;;;18.30;42.20;;;;;;5158496;27;20270;-58
2021/11/30 05:09:04;;;;;;;;;;;18.30;42.20;;;;;;5158326;27;20398;-59
2021/11/30 05:11:29;;;;;;;;;;;18.30;42.30;;;;;;5158251;27;19914;-59
2021/11/30 05:13:55;;;;;;;;;;;18.30;42.20;;;;;;5158150;27;20282;-59
2021/11/30 05:16:20;;;;;;;;;;;18.30;42.20;;;;;;5158403;27;20388;-59
2021/11/30 05:18:46;;;;;;;;;;;18.30;42.20;;;;;;5158395;27;20358;-58
2021/11/30 05:21:11;;;;;;;;;;;18.30;42.20;;;;;;5158000;27;19907;-58
2021/11/30 05:23:38;;;;;;;;;;;18.40;42.10;;;;;;5157867;27;20354;-58
2021/11/30 05:26:05;;;;;;;;;;;18.40;42.10;;;;;;5157821;27;19915;-58
2021/11/30 05:28:31;;;;;;;;;;;18.40;42.00;;;;;;5157650;27;19914;-58
2021/11/30 05:30:57;;;;;;;;;;;18.50;41.90;;;;;;5157854;27;19965;-59
2021/11/30 05:33:22;;;;;;;;;;;18.50;41.80;;;;;;5157549;27;19911;-59
2021/11/30 05:35:48;;;;;;;;;;;18.50;41.80;;;;;;5139035;27;19907;-58
2021/11/30 05:38:13;;;;;;;;;;;18.50;41.80;;;;;;5157432;27;19963;-58
2021/11/30 05:40:41;;;;;;;;;;;18.50;41.70;;;;;;5157481;27;20051;-59
2021/11/30 05:43:07;;;;;;;;;;;18.50;41.70;;;;;;5157258;27;19922;-59
2021/11/30 05:45:32;;;;;;;;;;;18.60;41.70;;;;;;5157495;27;19907;-58
2021/11/30 05:47:58;;;;;;;;;;;18.60;41.60;;;;;;5157505;27;19915;-58
2021/11/30 05:50:23;;;;;;;;;;;18.60;41.70;;;;;;5157458;27;19994;-59
2021/11/30 05:52:49;;;;;;;;;;;18.70;41.60;;;;;;5157222;27;19914;-59
2021/11/30 05:55:15;;;;;;;;;;;18.70;41.70;;;;;;5157108;27;20380;-58
2021/11/30 05:57:41;;;;;;;;;;;18.70;41.70;;;;;;5156803;27;19919;-59
2021/11/30 06:00:08;;;;;;;;;;;18.70;41.70;;;;;;5157353;27;19907;-59
2021/11/30 06:02:49;;;;;;;;;;;18.70;41.70;;;;;;5156518;27;19919;-59
2021/11/30 06:05:14;;;;;;;;;;;18.70;41.70;;;;;;5156972;27;20242;-59
2021/11/30 06:07:40;;;;;;;;;;;18.80;41.70;;;;;;5157011;27;19907;-59
2021/11/30 06:10:05;;;;;;;;;;;18.80;41.70;;;;;;5156887;27;19911;-58
2021/11/30 06:12:31;;;;;;;;;;;18.80;41.70;;;;;;5156742;27;19958;-58
2021/11/30 06:14:56;;;;;;;;;;;18.80;41.70;;;;;;5156987;27;20238;-58
2021/11/30 06:17:22;;;;;;;;;;;18.80;41.70;;;;;;5138180;27;19954;-58
2021/11/30 06:19:47;;;;;;;;;;;18.80;41.70;;;;;;5156935;27;19914;-58
2021/11/30 06:22:12;;;;;;;;;;;18.80;41.70;;;;;;5156966;27;20289;-59
2021/11/30 06:24:38;;;;;;;;;;;18.90;41.80;;;;;;5156601;27;19907;-58
2021/11/30 06:27:04;;;;;;;;;;;18.90;41.80;;;;;;5157052;27;19907;-58
2021/11/30 06:29:29;;;;;;;;;;;18.90;41.80;;;;;;5156411;27;20326;-59
2021/11/30 06:31:54;;;;;;;;;;;18.90;41.80;;;;;;5156524;27;19907;-58
2021/11/30 06:34:20;;;;;;;;;;;18.90;41.80;;;;;;5156682;27;19911;-58
2021/11/30 06:36:45;;;;;;;;;;;18.90;41.90;;;;;;5138016;27;19946;-58
2021/11/30 06:39:12;;;;;;;;;;;19.00;41.80;;;;;;5156424;27;19914;-58
2021/11/30 06:41:38;;;;;;;;;;;18.90;41.90;;;;;;5156135;27;19971;-59
2021/11/30 06:44:03;;;;;;;;;;;18.90;41.90;;;;;;5156104;27;20238;-59
2021/11/30 06:46:29;;;;;;;;;;;19.00;41.90;;;;;;5156402;27;19970;-59
2021/11/30 06:48:54;;;;;;;;;;;19.00;41.90;;;;;;5137401;27;19907;-59
2021/11/30 06:51:20;;;;;;;;;;;19.00;41.90;;;;;;5156209;27;19935;-59
2021/11/30 06:53:45;;;;;;;;;;;19.00;42.00;;;;;;5156294;27;20044;-59
2021/11/30 06:56:11;;;;;;;;;;;19.00;42.00;;;;;;5155680;27;20036;-59
2021/11/30 06:58:37;;;;;;;;;;;19.00;42.00;;;;;;5156113;27;19915;-59
2021/11/30 07:01:03;;;;;;;;;;;19.00;42.00;;;;;;5156062;27;19911;-59
2021/11/30 07:03:28;;;;;;;;;;;19.00;42.00;;;;;;5155863;27;19915;-59
2021/11/30 07:06:01;;;;;;;;;;;19.00;42.00;;;;;;5155974;27;20235;-60
2021/11/30 07:08:49;;;;;;;;;;;19.00;42.00;;;;;;5155698;27;19912;-59
2021/11/30 07:11:21;;;;;;;;;;;19.00;42.10;;;;;;5155766;27;19915;-58
2021/11/30 07:13:46;;;;;;;;;;;19.00;42.10;;;;;;5154984;27;19907;-59
2021/11/30 07:16:12;;;;;;;;;;;19.10;42.10;;;;;;5155417;27;19967;-59
2021/11/30 07:18:37;;;;;;;;;;;19.10;42.10;;;;;;5155627;27;20412;-60
2021/11/30 07:21:03;;;;;;;;;;;19.10;42.20;;;;;;5155659;27;19911;-60
2021/11/30 07:23:29;;;;;;;;;;;19.10;42.20;;;;;;5155316;27;19950;-60
2021/11/30 07:25:55;;;;;;;;;;;19.10;42.20;;;;;;5155612;27;19960;-59
2021/11/30 07:28:28;;;;;;;;;;;19.10;42.20;;;;;;5155375;27;19911;-60
2021/11/30 07:30:53;;;;;;;;;;;19.10;42.20;;;;;;5155375;27;20352;-60
2021/11/30 07:33:19;;;;;;;;;;;19.10;42.20;;;;;;5155333;27;19949;-60
2021/11/30 07:35:44;;;;;;;;;;;19.20;42.30;;;;;;5142146;27;19912;-60
2021/11/30 07:38:10;;;;;;;;;;;19.10;42.30;;;;;;5139227;27;19915;-58
2021/11/30 07:40:35;;;;;;;;;;;19.20;42.40;;;;;;5136332;27;19952;-58
2021/11/30 07:43:00;;;;;;;;;;;19.20;42.60;;;;;;5154035;27;19958;-58
2021/11/30 07:45:26;;;;;;;;;;;19.20;42.60;;;;;;5129260;27;19918;-59
2021/11/30 07:47:51;;;;;;;;;;;19.20;42.80;;;;;;5125617;27;20016;-53
2021/11/30 07:50:17;;;;;;;;;;;19.30;42.90;;;;;;5133448;27;20376;-53
2021/11/30 07:52:43;;;;;;;;;;;19.40;43.00;;;;;;5133541;27;19934;-57
2021/11/30 07:55:10;;;;;;;;;;;19.40;42.70;;;;;;5131189;27;19958;-57
2021/11/30 07:57:35;;;;;;;;;;;19.40;43.00;;;;;;5123705;27;19925;-52
2021/11/30 08:00:01;;;;;;;;;;;19.40;42.70;;;;;;5144251;27;19919;-59
2021/11/30 08:02:26;;;;;;;;;;;19.40;42.80;;;;;;5153138;27;19915;-59
2021/11/30 08:04:52;;;;;;;;;;;19.40;42.70;;;;;;5126649;28;19922;-60
2021/11/30 08:07:18;;;;;;;;;;;19.50;42.70;;;;;;5124056;27;19916;-60
2021/11/30 08:09:45;;;;;;;;;;;19.50;43.00;;;;;;5136083;27;19919;-59
2021/11/30 08:12:10;;;;;;;;;;;19.50;43.10;;;;;;5136994;27;19911;-60
2021/11/30 08:14:36;;;;;;;;;;;19.50;43.20;;;;;;5138416;27;19911;-60
2021/11/30 08:17:01;;;;;;;;;;;19.50;43.10;;;;;;5124832;27;19911;-60
2021/11/30 08:19:28;;;;;;;;;;;19.50;43.10;;;;;;5136176;27;19958;-59
2021/11/30 08:21:53;;;;;;;;;;;19.60;43.00;;;;;;5138573;27;19923;-59
2021/11/30 08:24:19;;;;;;;;;;;19.60;43.00;;;;;;5119616;27;19963;-60
2021/11/30 08:26:44;;;;;;;;;;;19.60;43.10;;;;;;5125198;27;19922;-57
2021/11/30 08:29:10;;;;;;;;;;;19.60;43.20;;;;;;5146561;27;19915;-60
2021/11/30 08:31:35;;;;;;;;;;;19.60;43.20;;;;;;5139190;27;20400;-60
2021/11/30 08:34:01;;;;;;;;;;;19.70;43.10;;;;;;5151672;27;20370;-60
2021/11/30 08:36:27;;;;;;;;;;;19.70;43.30;;;;;;5124006;27;19919;-59
2021/11/30 08:38:52;;;;;;;;;;;19.80;43.40;;;;;;5137654;27;19912;-58
2021/11/30 08:41:20;;;;;;;;;;;19.90;43.30;;;;;;5146204;27;19915;-59
2021/11/30 08:43:46;;;;;;;;;;;19.80;43.60;;;;;;5136182;27;19919;-57
2021/11/30 08:46:11;;;;;;;;;;;19.80;43.60;;;;;;5125644;27;19955;-57
2021/11/30 08:48:37;;;;;;;;;;;19.90;43.50;;;;;;5131184;27;19961;-57
2021/11/30 08:51:03;;;;;;;;;;;19.90;43.80;;;;;;5136673;27;20127;-58
2021/11/30 08:53:33;;;;;;;;;;;19.90;43.50;;;;;;5137284;27;19937;-57
2021/11/30 08:55:59;;;;;;;;;;;19.90;43.50;;;;;;5133779;27;19919;-56
2021/11/30 08:58:24;;;;;;;;;;;20.00;43.50;;;;;;5132784;27;19920;-56
2021/11/30 09:00:49;;;;;;;;;;;20.00;43.70;;;;;;5137714;27;19964;-54
2021/11/30 09:03:15;;;;;;;;;;;20.10;43.90;;;;;;5138560;27;20347;-55
2021/11/30 09:05:41;;;;;;;;;;;20.20;43.50;;;;;;5139048;27;20198;-59
2021/11/30 09:08:07;;;;;;;;;;;20.20;43.70;;;;;;5138007;27;20350;-57
2021/11/30 09:10:32;;;;;;;;;;;20.10;43.80;;;;;;5135142;27;19968;-56
2021/11/30 09:12:58;;;;;;;;;;;20.10;44.00;;;;;;5134097;27;19915;-56
2021/11/30 09:15:23;;;;;;;;;;;20.10;44.20;;;;;;5119121;27;20401;-55
2021/11/30 09:17:50;;;;;;;;;;;20.00;44.20;;;;;;5140921;27;19919;-59
2021/11/30 09:20:15;;;;;;;;;;;19.70;45.20;;;;;;5141800;27;19912;-51
2021/11/30 09:22:41;;;;;;;;;;;19.20;46.30;;;;;;5148443;27;19919;-56
2021/11/30 09:25:07;;;;;;;;;;;19.50;45.60;;;;;;5155101;27;19951;-56
2021/11/30 09:27:33;;;;;;;;;;;19.80;44.90;;;;;;5123894;27;20351;-56
2021/11/30 09:29:59;;;;;;;;;;;19.90;44.60;;;;;;5156063;27;19914;-50
2021/11/30 09:32:29;;;;;;;;;;;20.00;44.20;;;;;;5144034;27;20361;-56
2021/11/30 09:34:56;;;;;;;;;;;20.10;44.40;;;;;;5142354;27;20357;-55
2021/11/30 09:37:22;;;;;;;;;;;20.20;44.50;;;;;;5128451;27;19918;-53
2021/11/30 09:39:47;;;;;;;;;;;20.20;44.40;;;;;;5147279;27;19911;-56
2021/11/30 09:42:14;;;;;;;;;;;20.20;44.90;;;;;;5141904;27;19919;-56
2021/11/30 09:44:40;;;;;;;;;;;20.30;44.50;;;;;;5145501;27;20036;-56
2021/11/30 09:47:07;;;;;;;;;;;20.20;44.70;;;;;;5146309;27;19915;-56
2021/11/30 09:49:32;;;;;;;;;;;20.20;44.40;;;;;;5148697;27;19912;-56
2021/11/30 09:51:58;;;;;;;;;;;20.20;44.50;;;;;;5143488;27;19917;-57
2021/11/30 09:54:23;;;;;;;;;;;20.20;44.80;;;;;;5133982;27;19915;-59
2021/11/30 09:56:49;;;;;;;;;;;20.30;44.90;;;;;;5137951;27;19919;-57
2021/11/30 09:59:15;;;;;;;;;;;20.20;44.50;;;;;;5141045;27;19936;-53
2021/11/30 10:01:40;;;;;;;;;;;20.00;44.40;;;;;;5145208;27;19923;-57
2021/11/30 10:04:06;;;;;;;;;;;19.90;44.80;;;;;;5136017;27;19918;-59
2021/11/30 10:06:32;;;;;;;;;;;19.90;44.60;;;;;;5126676;27;19997;-58
2021/11/30 10:08:57;;;;;;;;;;;20.10;44.90;;;;;;5135245;27;19953;-56
2021/11/30 10:11:33;;;;;;;;;;;20.10;45.30;;;;;;5135716;27;19923;-58
2021/11/30 10:14:08;;;;;;;;;;;20.30;45.10;;;;;;5135218;27;19911;-58
2021/11/30 10:16:33;;;;;;;;;;;20.30;45.10;;;;;;5120015;27;20003;-57
2021/11/30 10:18:59;;;;;;;;;;;20.30;45.00;;;;;;5145977;27;19954;-58
2021/11/30 10:21:25;;;;;;;;;;;20.30;45.30;;;;;;5141399;27;19907;-56
2021/11/30 10:23:53;;;;;;;;;;;20.30;45.10;;;;;;5135842;27;20247;-58
2021/11/30 10:26:21;;;;;;;;;;;20.30;44.90;;;;;;5136731;27;19918;-56
2021/11/30 10:28:57;;;;;;;;;;;20.40;45.00;;;;;;5139025;27;19907;-58
2021/11/30 10:31:27;;;;;;;;;;;20.40;45.00;;;;;;5152471;27;19950;-59
2021/11/30 10:33:53;;;;;;;;;;;20.40;45.00;;;;;;5153056;27;19908;-59
2021/11/30 10:36:19;;;;;;;;;;;20.40;45.00;;;;;;5142841;27;20317;-58
2021/11/30 10:38:45;;;;;;;;;;;20.40;45.00;;;;;;5133527;27;19908;-59
2021/11/30 10:41:10;;;;;;;;;;;20.40;44.90;;;;;;5133179;27;20365;-60
2021/11/30 10:43:39;;;;;;;;;;;20.40;44.90;;;;;;5133166;27;19916;-56
2021/11/30 10:46:07;;;;;;;;;;;20.40;45.00;;;;;;5129233;27;19907;-59
2021/11/30 10:48:33;;;;;;;;;;;20.50;45.10;;;;;;5133799;27;20342;-59
2021/11/30 10:50:59;;;;;;;;;;;20.50;45.10;;;;;;5135357;27;19951;-57
2021/11/30 10:53:26;;;;;;;;;;;20.50;45.00;;;;;;5134789;27;20002;-56
2021/11/30 10:55:55;;;;;;;;;;;20.50;44.90;;;;;;5148015;27;19968;-58
2021/11/30 10:58:22;;;;;;;;;;;20.50;45.10;;;;;;5140383;27;20016;-59
2021/11/30 11:00:47;;;;;;;;;;;20.50;45.10;;;;;;5133795;27;19912;-57
2021/11/30 11:03:17;;;;;;;;;;;20.50;45.50;;;;;;5140132;27;20427;-56
2021/11/30 11:05:45;;;;;;;;;;;20.50;45.60;;;;;;5151871;27;19907;-55
2021/11/30 11:08:12;;;;;;;;;;;20.60;45.50;;;;;;5124768;27;19918;-58
2021/11/30 11:10:38;;;;;;;;;;;20.60;45.70;;;;;;5124986;27;20093;-58
2021/11/30 11:13:15;;;;;;;;;;;20.60;45.80;;;;;;5154177;27;20422;-58
2021/11/30 11:15:41;;;;;;;;;;;20.60;45.80;;;;;;5139406;27;19915;-57
2021/11/30 11:18:26;;;;;;;;;;;20.60;45.60;;;;;;5138122;27;19912;-58
2021/11/30 11:21:08;;;;;;;;;;;20.60;45.80;;;;;;5135391;27;20010;-56
2021/11/30 11:23:33;;;;;;;;;;;20.80;45.80;;;;;;5147447;27;20407;-57
2021/11/30 11:26:12;;;;;;;;;;;20.70;46.30;;;;;;5127105;27;19911;-57
2021/11/30 11:28:38;;;;;;;;;;;20.60;46.00;;;;;;5129706;27;19912;-57
2021/11/30 11:31:03;;;;;;;;;;;20.70;45.90;;;;;;5147773;27;20018;-57
2021/11/30 11:33:29;;;;;;;;;;;20.70;46.00;;;;;;5134877;27;19911;-58
2021/11/30 11:35:54;;;;;;;;;;;20.80;45.80;;;;;;5132342;27;20021;-58
2021/11/30 11:38:20;;;;;;;;;;;20.90;45.80;;;;;;5141469;27;19962;-58
2021/11/30 11:40:45;;;;;;;;;;;20.80;46.30;;;;;;5139371;27;20353;-57
2021/11/30 11:43:11;;;;;;;;;;;20.80;46.20;;;;;;5133218;27;19923;-55
2021/11/30 11:45:36;;;;;;;;;;;20.80;46.80;;;;;;5141926;27;19915;-56
2021/11/30 11:48:03;;;;;;;;;;;20.80;46.20;;;;;;5127539;27;19911;-60
2021/11/30 11:50:37;;;;;;;;;;;20.80;46.30;;;;;;5138437;27;20282;-57
2021/11/30 11:53:19;;;;;;;;;;;20.80;46.20;;;;;;5140605;27;19919;-58
2021/11/30 11:56:05;;;;;;;;;;;20.80;46.60;;;;;;5133735;27;19933;-56
2021/11/30 11:58:30;;;;;;;;;;;20.90;46.80;;;;;;5129147;27;19977;-57
2021/11/30 12:00:58;;;;;;;;;;;20.90;46.90;;;;;;5145304;27;19947;-59
2021/11/30 12:03:43;;;;;;;;;;;21.00;46.70;;;;;;5132686;27;20204;-59
2021/11/30 12:06:16;;;;;;;;;;;21.00;47.00;;;;;;5123108;27;19912;-58
2021/11/30 12:09:01;;;;;;;;;;;21.00;46.90;;;;;;5127869;27;20282;-58
2021/11/30 12:11:34;;;;;;;;;;;21.00;46.90;;;;;;5132961;27;19918;-60
2021/11/30 12:14:07;;;;;;;;;;;21.00;46.70;;;;;;5142176;27;19918;-59
2021/11/30 12:16:53;;;;;;;;;;;21.00;46.90;;;;;;5116003;27;19911;-58
2021/11/30 12:19:25;;;;;;;;;;;21.00;47.50;;;;;;5132423;27;19915;-56
2021/11/30 12:21:51;;;;;;;;;;;21.10;47.00;;;;;;5135739;27;19916;-56
2021/11/30 12:24:29;;;;;;;;;;;21.10;46.80;;;;;;5134969;27;19911;-60
2021/11/30 12:26:55;;;;;;;;;;;21.10;46.80;;;;;;5124484;27;19915;-58
2021/11/30 12:29:20;;;;;;;;;;;21.10;47.20;;;;;;5135671;27;19996;-59
2021/11/30 12:31:47;;;;;;;;;;;21.10;47.00;;;;;;5133130;27;19911;-54
2021/11/30 12:34:30;;;;;;;;;;;21.20;47.10;;;;;;5134805;27;19958;-59
2021/11/30 12:37:03;;;;;;;;;;;21.20;47.20;;;;;;5120287;27;19911;-57
2021/11/30 12:39:48;;;;;;;;;;;21.10;47.00;;;;;;5133740;27;19926;-56
2021/11/30 12:42:14;;;;;;;;;;;21.10;46.90;;;;;;5149560;27;19926;-58
2021/11/30 12:44:42;;;;;;;;;;;21.10;46.70;;;;;;5138561;27;19911;-57
2021/11/30 12:47:22;;;;;;;;;;;21.10;46.90;;;;;;5120886;27;19912;-53
2021/11/30 12:49:48;;;;;;;;;;;21.10;46.80;;;;;;5143099;27;19919;-51
2021/11/30 12:52:22;;;;;;;;;;;21.10;46.90;;;;;;5143727;27;19926;-60
2021/11/30 12:54:48;;;;;;;;;;;21.20;47.20;;;;;;5143736;27;19915;-60
2021/11/30 12:57:20;;;;;;;;;;;21.10;46.90;;;;;;5137754;27;19923;-54
2021/11/30 12:59:45;;;;;;;;;;;21.10;46.90;;;;;;5145335;27;20350;-54
2021/11/30 13:02:17;;;;;;;;;;;21.20;47.00;;;;;;5146852;27;19957;-54
2021/11/30 13:04:43;;;;;;;;;;;21.10;47.10;;;;;;5135151;27;20010;-56
2021/11/30 13:07:12;;;;;;;;;;;21.10;47.00;;;;;;5132038;27;20015;-56
2021/11/30 13:09:42;;;;;;;;;;;21.20;47.10;;;;;;5132300;27;20022;-56
2021/11/30 13:12:08;;;;;;;;;;;21.20;47.10;;;;;;5135546;27;19912;-56
2021/11/30 13:14:35;;;;;;;;;;;21.20;47.10;;;;;;5139590;27;19926;-55
2021/11/30 13:17:01;;;;;;;;;;;21.20;47.20;;;;;;5139239;27;19912;-54
2021/11/30 13:19:30;;;;;;;;;;;21.10;46.90;;;;;;5138688;27;20289;-55
2021/11/30 13:21:57;;;;;;;;;;;21.10;47.20;;;;;;5147833;27;19965;-53
2021/11/30 13:24:31;;;;;;;;;;;21.20;47.10;;;;;;5142942;27;19915;-55
2021/11/30 13:27:07;;;;;;;;;;;21.10;47.20;;;;;;5148050;27;19941;-59
2021/11/30 13:29:33;;;;;;;;;;;21.20;47.30;;;;;;5139625;27;19987;-58
2021/11/30 13:32:03;;;;;;;;;;;21.20;47.10;;;;;;5136089;27;19943;-57
2021/11/30 13:34:29;;;;;;;;;;;21.20;47.40;;;;;;5140034;27;19911;-57
2021/11/30 13:36:54;;;;;;;;;;;21.20;47.40;;;;;;5143391;27;19911;-56
2021/11/30 13:39:20;;;;;;;;;;;21.20;47.20;;;;;;5143401;27;20065;-57
2021/11/30 13:41:45;;;;;;;;;;;21.20;47.20;;;;;;5142037;27;19916;-57
2021/11/30 13:44:10;;;;;;;;;;;21.20;47.20;;;;;;5140304;27;19968;-56
2021/11/30 13:46:39;;;;;;;;;;;21.20;47.30;;;;;;5147829;27;19919;-57
2021/11/30 13:49:06;;;;;;;;;;;21.20;47.30;;;;;;5141093;27;20271;-57
2021/11/30 13:51:33;;;;;;;;;;;21.20;47.20;;;;;;5135046;27;19919;-58
2021/11/30 13:54:00;;;;;;;;;;;21.40;47.40;;;;;;5139042;27;19912;-57
2021/11/30 13:56:29;;;;;;;;;;;21.50;47.90;;;;;;5136995;27;19919;-55
2021/11/30 13:59:09;;;;;;;;;;;21.40;47.50;;;;;;5138420;27;19911;-57
2021/11/30 14:04:15;;;;;;;;;;;21.30;47.30;;;;;;5146915;27;19915;-55
2021/11/30 14:06:43;;;;;;;;;;;21.30;47.30;;;;;;5150655;27;20421;-57
2021/11/30 14:09:11;;;;;;;;;;;21.20;47.30;;;;;;5153925;27;19971;-57
2021/11/30 14:11:50;;;;;;;;;;;21.30;47.30;;;;;;5140664;27;19911;-58
2021/11/30 14:14:17;;;;;;;;;;;21.30;47.10;;;;;;5135159;27;19998;-54
2021/11/30 14:16:46;;;;;;;;;;;21.30;47.10;;;;;;5139896;27;20362;-56
2021/11/30 14:19:11;;;;;;;;;;;21.30;47.20;;;;;;5137449;27;19934;-57
2021/11/30 14:21:36;;;;;;;;;;;21.30;47.20;;;;;;5119705;27;20350;-56
2021/11/30 14:24:07;;;;;;;;;;;21.30;47.10;;;;;;5136805;27;20308;-57